createdAt,value
2023-04-15T00:02:16.132Z,113.88
2023-04-15T00:04:43.298Z,109.28
2023-04-15T00:07:10.965Z,110.90
2023-04-15T00:09:38.080Z,122.90
2023-04-15T00:12:05.730Z,139.25
2023-04-15T00:14:32.791Z,121.60
2023-04-15T00:16:59.961Z,130.50
2023-04-15T00:19:27.227Z,132.05
2023-04-15T00:21:54.276Z,116.20
2023-04-15T00:24:21.531Z,137.65
2023-04-15T00:26:49.038Z,122.57
2023-04-15T00:29:16.087Z,128.77
2023-04-15T00:31:43.193Z,134.15
2023-04-15T00:34:10.783Z,122.43
2023-04-15T00:36:37.862Z,139.40
2023-04-15T00:39:05.252Z,136.87
2023-04-15T00:41:34.075Z,113.23
2023-04-15T00:44:02.408Z,121.07
2023-04-15T00:46:29.631Z,114.70
2023-04-15T00:48:57.335Z,116.53
2023-04-15T00:51:25.596Z,112.93
2023-04-15T00:53:52.659Z,118.97
2023-04-15T00:56:20.412Z,133.93
2023-04-15T00:58:47.488Z,106.07
2023-04-15T01:01:14.760Z,120.43
2023-04-15T01:03:42.029Z,112.15
2023-04-15T01:06:09.164Z,116.85
2023-04-15T01:08:36.327Z,127.05
2023-04-15T01:11:03.579Z,121.40
2023-04-15T01:13:31.170Z,103.30
2023-04-15T01:15:58.446Z,105.88
2023-04-15T01:18:25.519Z,102.75
2023-04-15T01:20:52.580Z,122.55
2023-04-15T01:23:19.654Z,105.07
2023-04-15T01:25:47.475Z,119.10
2023-04-15T01:28:14.544Z,111.05
2023-04-15T01:30:41.617Z,136.90
2023-04-15T01:33:08.758Z,143.00
2023-04-15T01:35:36.270Z,111.85
2023-04-15T01:38:07.423Z,134.90
2023-04-15T01:40:35.013Z,120.32
2023-04-15T01:43:02.492Z,119.82
2023-04-15T01:45:30.065Z,133.18
2023-04-15T01:47:57.355Z,154.25
2023-04-15T01:50:25.661Z,163.68
2023-04-15T01:52:52.790Z,122.95
2023-04-15T01:55:19.836Z,127.47
2023-04-15T01:57:47.338Z,140.85
2023-04-15T02:00:14.735Z,138.65
2023-04-15T02:02:42.081Z,141.65
2023-04-15T02:05:09.604Z,127.22
2023-04-15T02:07:37.148Z,116.95
2023-04-15T02:10:04.307Z,129.20
2023-04-15T02:12:31.545Z,128.02
2023-04-15T02:14:58.611Z,150.65
2023-04-15T02:17:26.032Z,143.18
2023-04-15T02:19:53.125Z,150.65
2023-04-15T02:22:20.416Z,177.65
2023-04-15T02:24:47.502Z,151.05
2023-04-15T02:27:18.233Z,148.73
2023-04-15T02:29:45.898Z,120.82
2023-04-15T02:32:13.549Z,137.80
2023-04-15T02:34:42.594Z,109.30
2023-04-15T02:37:10.095Z,134.82
2023-04-15T02:39:37.486Z,129.43
2023-04-15T02:42:05.862Z,113.77
2023-04-15T02:44:34.037Z,146.30
2023-04-15T02:47:01.127Z,116.00
2023-04-15T02:49:30.806Z,165.88
2023-04-15T02:51:58.165Z,143.18
2023-04-15T02:54:25.880Z,127.55
2023-04-15T02:56:55.311Z,122.90
2023-04-15T02:59:22.405Z,144.73
2023-04-15T03:01:49.588Z,110.30
2023-04-15T03:04:17.068Z,126.68
2023-04-15T03:06:44.295Z,132.63
2023-04-15T03:09:11.385Z,126.80
2023-04-15T03:11:40.919Z,131.52
2023-04-15T03:14:07.977Z,143.32
2023-04-15T03:16:35.075Z,129.50
2023-04-15T03:19:02.337Z,125.18
2023-04-15T03:21:29.523Z,120.60
2023-04-15T03:23:56.639Z,129.73
2023-04-15T03:26:30.361Z,137.82
2023-04-15T03:28:57.502Z,140.27
2023-04-15T03:31:24.749Z,122.30
2023-04-15T03:33:51.908Z,108.93
2023-04-15T03:36:18.996Z,134.98
2023-04-15T03:38:46.417Z,143.07
2023-04-15T03:41:13.832Z,100.95
2023-04-15T03:43:41.141Z,125.93
2023-04-15T03:46:08.227Z,134.95
2023-04-15T03:48:35.362Z,132.60
2023-04-15T03:51:02.512Z,131.65
2023-04-15T03:53:29.578Z,121.43
2023-04-15T03:55:56.771Z,144.23
2023-04-15T03:58:23.852Z,132.40
2023-04-15T04:00:51.253Z,162.97
2023-04-15T04:03:18.578Z,149.13
2023-04-15T04:05:45.875Z,137.48
2023-04-15T04:08:16.330Z,136.93
2023-04-15T04:10:43.506Z,128.32
2023-04-15T04:13:10.577Z,130.23
2023-04-15T04:15:37.747Z,119.82
2023-04-15T04:18:04.948Z,136.55
2023-04-15T04:20:32.129Z,139.57
2023-04-15T04:22:59.275Z,132.45
2023-04-15T04:25:27.336Z,137.05
2023-04-15T04:27:54.450Z,102.22
2023-04-15T04:30:21.514Z,111.43
2023-04-15T04:32:48.631Z,152.57
2023-04-15T04:35:16.056Z,156.57
2023-04-15T04:37:43.131Z,159.35
2023-04-15T04:40:10.663Z,131.93
2023-04-15T04:42:39.893Z,151.50
2023-04-15T04:45:07.584Z,152.18
2023-04-15T04:47:34.755Z,115.28
2023-04-15T04:50:01.815Z,128.48
2023-04-15T04:52:28.894Z,138.00
2023-04-15T04:54:56.154Z,107.15
2023-04-15T04:57:23.261Z,134.45
2023-04-15T04:59:50.323Z,97.85
2023-04-15T05:02:17.477Z,143.30
2023-04-15T05:04:44.611Z,97.70
2023-04-15T05:07:12.109Z,131.35
2023-04-15T05:09:39.243Z,117.47
2023-04-15T05:12:06.498Z,100.85
2023-04-15T05:14:33.802Z,80.30
2023-04-15T05:17:00.863Z,85.70
2023-04-15T05:19:27.949Z,68.22
2023-04-15T05:21:55.040Z,79.38
2023-04-15T05:24:22.479Z,65.07
2023-04-15T05:26:49.763Z,78.40
2023-04-15T05:29:16.870Z,91.95
2023-04-15T05:31:43.990Z,69.97
2023-04-15T05:34:12.186Z,66.45
2023-04-15T05:36:39.417Z,80.75
2023-04-15T05:39:07.080Z,66.97
2023-04-15T05:41:34.517Z,57.28
2023-04-15T05:44:02.142Z,72.05
2023-04-15T05:46:29.264Z,64.95
2023-04-15T05:48:56.851Z,63.25
2023-04-15T05:51:23.961Z,44.13
2023-04-15T05:53:51.215Z,55.28
2023-04-15T05:56:18.699Z,53.83
2023-04-15T05:58:45.771Z,51.30
2023-04-15T06:01:12.834Z,52.38
2023-04-15T06:03:40.281Z,42.47
2023-04-15T06:06:07.715Z,40.53
2023-04-15T06:08:34.796Z,40.33
2023-04-15T06:11:02.034Z,38.55
2023-04-15T06:13:29.159Z,34.30
2023-04-15T06:15:56.268Z,36.35
2023-04-15T06:18:23.523Z,32.20
2023-04-15T06:20:50.843Z,38.53
2023-04-15T06:23:17.935Z,30.25
2023-04-15T06:25:45.045Z,31.95
2023-04-15T06:28:12.256Z,35.33
2023-04-15T06:30:39.924Z,27.88
2023-04-15T06:33:07.383Z,30.90
2023-04-15T06:35:34.518Z,32.83
2023-04-15T06:38:01.646Z,27.88
2023-04-15T06:40:40.967Z,24.15
2023-04-15T06:43:08.052Z,26.15
2023-04-15T06:45:35.290Z,23.23
2023-04-15T06:48:02.365Z,22.17
2023-04-15T06:50:29.470Z,25.00
2023-04-15T06:52:57.151Z,27.42
2023-04-15T06:55:24.248Z,21.10
2023-04-15T06:57:51.377Z,22.10
2023-04-15T07:00:18.630Z,23.58
2023-04-15T07:02:46.691Z,17.02
2023-04-15T07:05:13.858Z,21.65
2023-04-15T07:07:41.068Z,23.75
2023-04-15T07:10:08.622Z,17.77
2023-04-15T07:12:35.869Z,20.75
2023-04-15T07:15:03.433Z,18.77
2023-04-15T07:17:30.630Z,19.85
2023-04-15T07:19:58.042Z,18.08
2023-04-15T07:22:25.145Z,17.75
2023-04-15T07:24:52.207Z,19.50
2023-04-15T07:27:19.402Z,22.15
2023-04-15T07:29:46.668Z,19.52
2023-04-15T07:32:13.725Z,20.55
2023-04-15T07:34:41.522Z,18.27
2023-04-15T07:37:08.590Z,22.42
2023-04-15T07:39:35.836Z,20.57
2023-04-15T07:42:02.911Z,19.60
2023-04-15T07:44:29.981Z,19.75
2023-04-15T07:46:57.408Z,19.57
2023-04-15T07:49:24.556Z,19.53
2023-04-15T07:51:51.660Z,22.60
2023-04-15T07:54:18.720Z,22.45
2023-04-15T07:56:45.828Z,17.27
2023-04-15T07:59:13.042Z,18.10
2023-04-15T08:01:40.142Z,16.52
2023-04-15T08:04:08.178Z,17.15
2023-04-15T08:06:36.455Z,16.50
2023-04-15T08:09:03.879Z,15.52
2023-04-15T08:11:31.476Z,14.93
2023-04-15T08:13:58.542Z,12.75
2023-04-15T08:16:25.969Z,14.80
2023-04-15T08:18:53.469Z,12.87
2023-04-15T08:21:20.624Z,14.23
2023-04-15T08:23:48.355Z,15.43
2023-04-15T08:26:15.445Z,13.20
2023-04-15T08:28:42.750Z,14.77
2023-04-15T08:31:09.943Z,13.27
2023-04-15T08:33:37.174Z,13.90
2023-04-15T08:36:04.430Z,12.20
2023-04-15T08:38:31.721Z,12.52
2023-04-15T08:40:59.425Z,11.85
2023-04-15T08:43:30.586Z,10.65
2023-04-15T08:46:00.105Z,11.35
2023-04-15T08:48:27.243Z,11.73
2023-04-15T08:50:54.338Z,12.40
2023-04-15T08:53:21.892Z,10.10
2023-04-15T08:55:52.158Z,10.80
2023-04-15T08:58:19.924Z,11.23
2023-04-15T09:00:48.959Z,10.82
2023-04-15T09:03:17.533Z,11.55
2023-04-15T09:05:44.750Z,11.10
2023-04-15T09:08:11.965Z,10.95
2023-04-15T09:10:39.093Z,10.57
2023-04-15T09:13:07.144Z,11.40
2023-04-15T09:15:34.317Z,10.88
2023-04-15T09:18:01.408Z,11.73
2023-04-15T09:20:28.547Z,11.88
2023-04-15T09:22:55.679Z,11.20
2023-04-15T09:25:22.812Z,9.48
2023-04-15T09:27:50.349Z,12.45
2023-04-15T09:30:17.611Z,10.45
2023-04-15T09:32:54.507Z,10.77
2023-04-15T09:35:22.207Z,10.07
2023-04-15T09:37:49.917Z,10.15
2023-04-15T09:40:32.142Z,9.63
2023-04-15T09:42:59.218Z,11.13
2023-04-15T09:45:29.370Z,9.23
2023-04-15T09:47:59.020Z,9.30
2023-04-15T09:50:29.699Z,9.95
2023-04-15T09:52:57.419Z,11.23
2023-04-15T09:55:24.642Z,13.30
2023-04-15T09:57:52.284Z,9.73
2023-04-15T10:00:19.542Z,12.65
2023-04-15T10:02:47.051Z,9.60
2023-04-15T10:05:18.013Z,10.10
2023-04-15T10:07:45.731Z,11.50
2023-04-15T10:10:13.337Z,10.90
2023-04-15T10:12:41.470Z,10.65
2023-04-15T10:15:08.766Z,10.97
2023-04-15T10:17:37.070Z,11.95
2023-04-15T10:20:05.169Z,9.82
2023-04-15T10:22:33.087Z,12.23
2023-04-15T10:25:01.068Z,11.50
2023-04-15T10:27:28.978Z,12.13
2023-04-15T10:29:56.575Z,11.60
2023-04-15T10:32:23.983Z,11.65
2023-04-15T10:34:54.227Z,12.13
2023-04-15T10:37:22.746Z,9.45
2023-04-15T10:39:50.726Z,10.15
2023-04-15T10:42:19.032Z,11.25
2023-04-15T10:44:49.641Z,10.40
2023-04-15T10:47:20.371Z,11.05
2023-04-15T10:49:50.514Z,8.40
2023-04-15T10:52:18.279Z,9.38
2023-04-15T10:54:45.482Z,7.35
2023-04-15T10:57:24.762Z,9.02
2023-04-15T11:00:11.394Z,8.57
2023-04-15T11:02:42.663Z,9.68
2023-04-15T11:05:10.478Z,6.80
2023-04-15T11:07:50.656Z,7.53
2023-04-15T11:10:27.258Z,9.57
2023-04-15T11:12:55.016Z,7.07
2023-04-15T11:15:36.778Z,7.78
2023-04-15T11:18:10.790Z,7.05
2023-04-15T11:20:38.568Z,8.98
2023-04-15T11:23:13.874Z,6.55
2023-04-15T11:25:42.990Z,7.53
2023-04-15T11:28:10.835Z,8.70
2023-04-15T11:30:38.244Z,6.55
2023-04-15T11:33:09.059Z,10.93
2023-04-15T11:35:36.580Z,9.95
2023-04-15T11:38:06.919Z,8.60
2023-04-15T11:40:35.293Z,9.65
2023-04-15T11:43:05.422Z,8.52
2023-04-15T11:45:32.505Z,8.77
2023-04-15T11:48:06.742Z,8.45
2023-04-15T11:50:33.978Z,8.40
2023-04-15T11:53:02.283Z,7.97
2023-04-15T11:55:29.475Z,9.13
2023-04-15T11:58:16.716Z,8.52
2023-04-15T12:01:01.980Z,7.60
2023-04-15T12:03:33.176Z,8.55
2023-04-15T12:06:07.770Z,7.80
2023-04-15T12:08:57.531Z,8.35
2023-04-15T12:11:28.576Z,8.30
2023-04-15T12:13:57.035Z,8.57
2023-04-15T12:16:24.735Z,9.52
2023-04-15T12:18:56.188Z,8.68
2023-04-15T12:21:23.876Z,7.63
2023-04-15T12:23:57.542Z,8.70
2023-04-15T12:26:30.661Z,7.55
2023-04-15T12:29:07.407Z,7.65
2023-04-15T12:31:37.965Z,7.60
2023-04-15T12:34:05.626Z,7.30
2023-04-15T12:36:36.992Z,8.85
2023-04-15T12:39:07.572Z,8.70
2023-04-15T12:41:34.655Z,9.40
2023-04-15T12:44:02.287Z,8.27
2023-04-15T12:46:29.434Z,7.38
2023-04-15T12:48:57.934Z,8.32
2023-04-15T12:51:26.330Z,9.60
2023-04-15T12:53:53.469Z,10.20
2023-04-15T12:56:20.601Z,10.18
2023-04-15T12:58:47.643Z,8.40
2023-04-15T13:01:14.715Z,10.75
2023-04-15T13:03:42.350Z,11.30
2023-04-15T13:06:09.582Z,10.65
2023-04-15T13:08:38.562Z,9.73
2023-04-15T13:11:07.750Z,9.38
2023-04-15T13:13:35.007Z,11.38
2023-04-15T13:16:02.193Z,8.88
2023-04-15T13:18:31.097Z,9.05
2023-04-15T13:20:58.304Z,11.10
2023-04-15T13:23:25.418Z,10.43
2023-04-15T13:25:53.073Z,10.07
2023-04-15T13:28:20.503Z,11.48
2023-04-15T13:30:48.897Z,11.15
2023-04-15T13:33:17.117Z,13.65
2023-04-15T13:35:44.319Z,14.40
2023-04-15T13:38:11.476Z,14.43
2023-04-15T13:40:38.545Z,14.45
2023-04-15T13:43:05.752Z,17.08
2023-04-15T13:45:32.893Z,16.52
2023-04-15T13:48:00.085Z,13.13
2023-04-15T13:50:27.307Z,15.85
2023-04-15T13:52:54.428Z,14.50
2023-04-15T13:55:23.682Z,18.75
2023-04-15T13:57:51.819Z,20.85
2023-04-15T14:00:18.942Z,14.50
2023-04-15T14:02:46.370Z,15.48
2023-04-15T14:05:13.596Z,14.25
2023-04-15T14:07:40.913Z,18.45
2023-04-15T14:10:08.242Z,16.02
2023-04-15T14:12:35.411Z,24.33
2023-04-15T14:15:04.900Z,26.07
2023-04-15T14:17:32.249Z,20.33
2023-04-15T14:19:59.417Z,17.02
2023-04-15T14:22:26.473Z,17.75
2023-04-15T14:24:55.581Z,18.42
2023-04-15T14:27:22.827Z,16.38
2023-04-15T14:29:50.099Z,16.77
2023-04-15T14:32:17.445Z,18.70
2023-04-15T14:34:44.698Z,16.23
2023-04-15T14:37:11.942Z,16.13
2023-04-15T14:39:39.633Z,15.80
2023-04-15T14:42:06.890Z,16.60
2023-04-15T14:44:34.333Z,19.10
2023-04-15T14:47:04.187Z,19.92
2023-04-15T14:49:31.278Z,18.63
2023-04-15T14:51:58.374Z,20.75
2023-04-15T14:54:25.504Z,19.88
2023-04-15T14:56:52.799Z,22.05
2023-04-15T14:59:20.164Z,19.30
2023-04-15T15:01:47.353Z,19.70
2023-04-15T15:04:14.771Z,21.75
2023-04-15T15:06:42.477Z,19.35
2023-04-15T15:09:09.970Z,18.17
2023-04-15T15:11:37.288Z,24.60
2023-04-15T15:14:04.550Z,24.27
2023-04-15T15:16:31.709Z,20.17
2023-04-15T15:18:58.803Z,20.98
2023-04-15T15:21:26.995Z,19.52
2023-04-15T15:23:54.222Z,18.53
2023-04-15T15:26:21.363Z,18.33
2023-04-15T15:28:50.486Z,17.42
2023-04-15T15:31:17.570Z,18.90
2023-04-15T15:33:44.704Z,19.20
2023-04-15T15:36:11.875Z,18.08
2023-04-15T15:38:38.996Z,19.15
2023-04-15T15:41:06.128Z,18.88
2023-04-15T15:43:33.321Z,18.38
2023-04-15T15:46:00.491Z,20.13
2023-04-15T15:48:27.566Z,18.17
2023-04-15T15:50:54.691Z,19.55
2023-04-15T15:53:24.208Z,17.17
2023-04-15T15:55:53.626Z,20.52
2023-04-15T15:58:21.045Z,18.23
2023-04-15T16:00:49.167Z,17.90
2023-04-15T16:03:16.481Z,22.40
2023-04-15T16:05:43.866Z,18.20
2023-04-15T16:08:10.992Z,19.88
2023-04-15T16:10:38.631Z,19.10
2023-04-15T16:13:05.741Z,20.40
2023-04-15T16:15:32.949Z,19.50
2023-04-15T16:18:00.152Z,18.58
2023-04-15T16:20:28.785Z,18.13
2023-04-15T16:22:58.751Z,20.02
2023-04-15T16:25:25.886Z,20.02
2023-04-15T16:28:03.062Z,17.67
2023-04-15T16:34:30.986Z,20.03
2023-04-15T16:36:59.250Z,17.10
2023-04-15T16:39:26.440Z,18.45
2023-04-15T16:41:54.172Z,19.80
2023-04-15T16:44:21.273Z,17.80
2023-04-15T16:46:48.348Z,17.15
2023-04-15T16:49:15.542Z,21.05
2023-04-15T16:51:42.583Z,20.00
2023-04-15T16:54:09.979Z,18.92
2023-04-15T16:56:37.074Z,16.98
2023-04-15T16:59:04.272Z,17.20
2023-04-15T17:01:31.620Z,19.27
2023-04-15T17:03:58.840Z,16.80
2023-04-15T17:06:26.616Z,18.23
2023-04-15T17:08:53.680Z,16.85
2023-04-15T17:11:20.716Z,18.75
2023-04-15T17:13:47.941Z,16.75
2023-04-15T17:16:15.033Z,17.95
2023-04-15T17:18:42.132Z,19.75
2023-04-15T17:21:09.206Z,25.17
2023-04-15T17:23:36.298Z,19.45
2023-04-15T17:26:03.451Z,20.60
2023-04-15T17:28:30.613Z,18.60
2023-04-15T17:30:57.729Z,18.77
2023-04-15T17:33:55.273Z,27.33
2023-04-15T17:36:12.083Z,26.20
2023-04-15T17:38:39.186Z,24.17
2023-04-15T17:41:07.795Z,23.08
2023-04-15T17:43:34.888Z,20.05
2023-04-15T17:46:02.010Z,22.75
2023-04-15T17:48:29.153Z,25.70
2023-04-15T17:50:56.227Z,20.95
2023-04-15T17:53:23.359Z,22.10
2023-04-15T17:55:53.048Z,23.37
2023-04-15T17:58:20.465Z,20.48
2023-04-15T18:00:47.548Z,19.17
2023-04-15T18:03:15.016Z,19.77
2023-04-15T18:05:42.797Z,19.63
2023-04-15T18:08:10.063Z,22.13
2023-04-15T18:10:37.397Z,18.27
2023-04-15T18:13:04.493Z,16.88
2023-04-15T18:15:31.733Z,18.88
2023-04-15T18:17:59.231Z,17.25
2023-04-15T18:20:26.465Z,18.60
2023-04-15T18:22:53.583Z,18.05
2023-04-15T18:25:20.829Z,21.17
2023-04-15T18:27:47.940Z,18.23
2023-04-15T18:30:15.022Z,17.48
2023-04-15T18:32:42.158Z,19.13
2023-04-15T18:35:09.533Z,20.15
2023-04-15T18:37:36.623Z,20.45
2023-04-15T18:40:03.818Z,19.65
2023-04-15T18:42:30.886Z,18.38
2023-04-15T18:44:58.455Z,17.85
2023-04-15T18:47:27.100Z,20.63
2023-04-15T18:49:54.483Z,20.17
2023-04-15T18:52:21.773Z,17.80
2023-04-15T18:54:48.874Z,23.08
2023-04-15T18:57:20.699Z,26.30
2023-04-15T19:00:10.140Z,29.58
2023-04-15T19:02:37.268Z,28.13
2023-04-15T19:07:47.010Z,22.15
2023-04-15T19:10:14.141Z,20.88
2023-04-15T19:12:41.293Z,19.87
2023-04-15T19:15:09.053Z,21.20
2023-04-15T19:17:36.127Z,17.60
2023-04-15T19:20:03.271Z,20.55
2023-04-15T19:22:30.801Z,18.88
2023-04-15T19:24:57.857Z,19.98
2023-04-15T19:27:24.898Z,22.52
2023-04-15T19:29:51.994Z,19.50
2023-04-15T19:32:19.102Z,23.35
2023-04-15T19:34:46.381Z,19.88
2023-04-15T19:37:14.570Z,19.17
2023-04-15T19:39:41.658Z,20.97
2023-04-15T19:42:08.744Z,22.17
2023-04-15T19:44:37.155Z,18.83
2023-04-15T19:47:04.254Z,19.90
2023-04-15T19:49:31.329Z,19.55
2023-04-15T19:51:58.390Z,20.00
2023-04-15T19:54:26.061Z,20.75
2023-04-15T19:56:53.163Z,23.40
2023-04-15T19:59:20.257Z,24.17
2023-04-15T20:01:47.406Z,19.40
2023-04-15T20:04:14.708Z,20.37
2023-04-15T20:06:41.867Z,20.42
2023-04-15T20:09:11.040Z,23.80
2023-04-15T20:12:46.958Z,19.40
2023-04-15T20:14:25.693Z,20.60
2023-04-15T20:16:52.768Z,24.60
2023-04-15T20:19:19.846Z,19.80
2023-04-15T20:21:47.082Z,26.77
2023-04-15T20:24:14.185Z,22.10
2023-04-15T20:26:41.252Z,19.52
2023-04-15T20:29:08.549Z,22.80
2023-04-15T20:31:36.339Z,21.80
2023-04-15T20:34:03.438Z,19.73
2023-04-15T20:36:31.732Z,19.58
2023-04-15T20:38:58.881Z,22.48
2023-04-15T20:41:25.944Z,24.38
2023-04-15T20:43:52.998Z,19.00
2023-04-15T20:46:21.638Z,18.27
2023-04-15T20:48:49.156Z,20.20
2023-04-15T20:51:16.513Z,19.48
2023-04-15T20:53:43.604Z,22.02
2023-04-15T20:56:10.813Z,19.03
2023-04-15T20:58:38.618Z,20.55
2023-04-15T21:01:05.994Z,18.85
2023-04-15T21:03:33.324Z,19.67
2023-04-15T21:06:00.789Z,23.08
2023-04-15T21:08:29.878Z,23.63
2023-04-15T21:10:57.323Z,22.90
2023-04-15T21:13:24.552Z,20.08
2023-04-15T21:15:53.907Z,21.83
2023-04-15T21:18:21.630Z,25.47
2023-04-15T21:20:56.502Z,24.23
2023-04-15T21:23:23.627Z,29.23
2023-04-15T21:25:50.794Z,34.58
2023-04-15T21:28:17.937Z,28.23
2023-04-15T21:30:45.802Z,22.27
2023-04-15T21:33:12.923Z,26.77
2023-04-15T21:35:40.036Z,33.85
2023-04-15T21:38:07.172Z,27.40
2023-04-15T21:40:34.310Z,24.67
2023-04-15T21:43:01.419Z,22.35
2023-04-15T21:45:28.525Z,28.05
2023-04-15T21:47:56.783Z,25.80
2023-04-15T21:50:34.460Z,26.73
2023-04-15T21:53:01.770Z,21.83
2023-04-15T21:55:28.891Z,20.80
2023-04-15T21:57:56.004Z,25.77
2023-04-15T22:00:24.515Z,24.90
2023-04-15T22:02:51.986Z,24.58
2023-04-15T22:05:19.276Z,30.92
2023-04-15T22:07:46.448Z,63.97
2023-04-15T22:10:13.581Z,49.38
2023-04-15T22:12:44.112Z,29.42
2023-04-15T22:15:11.240Z,23.85
2023-04-15T22:17:38.391Z,26.40
2023-04-15T22:20:05.668Z,27.02
2023-04-15T22:22:43.994Z,23.98
2023-04-15T22:25:11.806Z,24.05
2023-04-15T22:27:38.900Z,23.85
2023-04-15T22:30:06.373Z,23.85
2023-04-15T22:32:33.498Z,26.10
2023-04-15T22:35:00.584Z,27.73
2023-04-15T22:37:30.508Z,23.50
2023-04-15T22:39:57.861Z,26.20
2023-04-15T22:42:25.063Z,24.08
2023-04-15T22:44:52.212Z,23.58
2023-04-15T22:47:19.509Z,26.02
2023-04-15T22:49:46.652Z,23.40
2023-04-15T22:52:23.359Z,21.70
2023-04-15T22:54:50.952Z,24.17
2023-04-15T22:57:18.033Z,24.15
2023-04-15T22:59:45.200Z,25.73
2023-04-15T23:02:12.347Z,24.63
2023-04-15T23:04:39.717Z,25.10
2023-04-15T23:07:06.944Z,25.05
2023-04-15T23:09:34.033Z,26.13
2023-04-15T23:12:01.301Z,24.73
2023-04-15T23:14:28.932Z,26.45
2023-04-15T23:16:56.044Z,23.20
2023-04-15T23:19:23.115Z,22.48
2023-04-15T23:21:50.434Z,27.07
2023-04-15T23:24:17.557Z,28.13
2023-04-15T23:26:44.645Z,25.75
2023-04-15T23:29:11.933Z,25.33
2023-04-15T23:31:39.149Z,28.02
2023-04-15T23:34:06.383Z,26.77
2023-04-15T23:36:33.557Z,26.23
2023-04-15T23:39:00.902Z,28.33
2023-04-15T23:41:28.014Z,30.42
2023-04-15T23:43:55.098Z,29.73
2023-04-15T23:46:22.226Z,32.17
2023-04-15T23:48:49.671Z,31.70
2023-04-15T23:51:16.999Z,31.45
2023-04-15T23:53:44.102Z,30.55
2023-04-15T23:56:11.207Z,29.02
2023-04-15T23:58:38.285Z,31.15
